SWA3423 KCMH-KBWI
Flight info
| Callsign | SWA3423 |
|---|---|
| Flight time | 0h 54m |
| Altitude | 29000 |
| Route | OWEBO NUSMM ANTHM5 |
| Aircraft | B737/M-SADE2E3GIJ4RWZ/LB1D1 |
Departure
| Time | 2026-05-09 02:29 |
|---|---|
| Airport | John Glenn Columbus International Airport (KCMH) |
Arrival
| Time | 2026-05-09 03:23 |
|---|---|
| Airport | Baltimore/Washington International Thurgood Marshall Airport (KBWI) |
| Time | Latitude | Longitude | Altitude | Speed | Heading |
|---|---|---|---|---|---|
| 2026-05-09 02:08 | 39.99656 | -82.88662 | 820 ft | 0 kts | 18° |
| 2026-05-09 02:17 | 39.99645 | -82.88667 | 818 ft | 4 kts | 23° |
| 2026-05-09 02:17 | 39.99622 | -82.88682 | 819 ft | 4 kts | 40° |
| 2026-05-09 02:18 | 39.99606 | -82.88708 | 818 ft | 4 kts | 77° |
| 2026-05-09 02:18 | 39.99604 | -82.88730 | 818 ft | 0 kts | 95° |
| 2026-05-09 02:22 | 39.99604 | -82.88722 | 818 ft | 3 kts | 95° |
| 2026-05-09 02:22 | 39.99602 | -82.88695 | 818 ft | 3 kts | 94° |
| 2026-05-09 02:23 | 39.99601 | -82.88670 | 818 ft | 3 kts | 94° |
| 2026-05-09 02:23 | 39.99599 | -82.88645 | 817 ft | 3 kts | 94° |
| 2026-05-09 02:23 | 39.99598 | -82.88621 | 818 ft | 3 kts | 94° |
| 2026-05-09 02:23 | 39.99597 | -82.88598 | 815 ft | 2 kts | 94° |
| 2026-05-09 02:24 | 39.99596 | -82.88585 | 818 ft | 0 kts | 94° |
| 2026-05-09 02:24 | 39.99596 | -82.88582 | 818 ft | 3 kts | 94° |
| 2026-05-09 02:24 | 39.99592 | -82.88511 | 818 ft | 9 kts | 94° |
| 2026-05-09 02:24 | 39.99587 | -82.88431 | 818 ft | 9 kts | 94° |
| 2026-05-09 02:25 | 39.99599 | -82.88356 | 814 ft | 9 kts | 67° |
| 2026-05-09 02:25 | 39.99616 | -82.88284 | 818 ft | 8 kts | 83° |
| 2026-05-09 02:25 | 39.99614 | -82.88199 | 818 ft | 12 kts | 95° |
| 2026-05-09 02:25 | 39.99604 | -82.88072 | 820 ft | 16 kts | 96° |
| 2026-05-09 02:26 | 39.99604 | -82.87952 | 822 ft | 11 kts | 72° |
| 2026-05-09 02:26 | 39.99670 | -82.87911 | 822 ft | 11 kts | 5° |
| 2026-05-09 02:26 | 39.99746 | -82.87902 | 822 ft | 11 kts | 5° |
| 2026-05-09 02:26 | 39.99819 | -82.87897 | 822 ft | 10 kts | 3° |
| 2026-05-09 02:27 | 39.99893 | -82.87896 | 822 ft | 11 kts | 352° |
| 2026-05-09 02:27 | 39.99957 | -82.87936 | 819 ft | 7 kts | 326° |
| 2026-05-09 02:27 | 40.00006 | -82.87946 | 819 ft | 7 kts | 2° |
| 2026-05-09 02:27 | 40.00058 | -82.87943 | 818 ft | 8 kts | 3° |
| 2026-05-09 02:28 | 40.00143 | -82.87958 | 818 ft | 17 kts | 314° |
| 2026-05-09 02:28 | 40.00179 | -82.88261 | 822 ft | 66 kts | 274° |
| 2026-05-09 02:28 | 40.00234 | -82.89197 | 815 ft | 138 kts | 275° |
| 2026-05-09 02:28 | 40.00296 | -82.90657 | 1072 ft | 172 kts | 274° |
| 2026-05-09 02:29 | 40.00333 | -82.91712 | 1586 ft | 176 kts | 272° |
| 2026-05-09 02:29 | 40.00374 | -82.93226 | 2812 ft | 154 kts | 271° |
| 2026-05-09 02:29 | 40.00482 | -82.94539 | 3889 ft | 139 kts | 272° |
| 2026-05-09 02:29 | 40.00640 | -82.95805 | 4541 ft | 150 kts | 273° |
| 2026-05-09 02:30 | 40.00832 | -82.97212 | 5011 ft | 173 kts | 273° |
| 2026-05-09 02:30 | 40.01211 | -82.98950 | 5017 ft | 224 kts | 296° |
| 2026-05-09 02:30 | 40.02462 | -83.00329 | 5032 ft | 257 kts | 334° |
| 2026-05-09 02:30 | 40.04319 | -83.00485 | 5547 ft | 284 kts | 6° |
| 2026-05-09 02:31 | 40.06285 | -82.99838 | 6428 ft | 296 kts | 11° |
| 2026-05-09 02:31 | 40.08274 | -82.99044 | 7519 ft | 300 kts | 12° |
| 2026-05-09 02:31 | 40.10277 | -82.98186 | 8751 ft | 298 kts | 12° |
| 2026-05-09 02:31 | 40.12218 | -82.97304 | 9859 ft | 301 kts | 12° |
| 2026-05-09 02:32 | 40.14205 | -82.96376 | 10840 ft | 304 kts | 12° |
| 2026-05-09 02:32 | 40.16204 | -82.95441 | 11837 ft | 306 kts | 12° |
| 2026-05-09 02:32 | 40.18230 | -82.94499 | 12655 ft | 317 kts | 13° |
| 2026-05-09 02:32 | 40.20267 | -82.93060 | 12991 ft | 355 kts | 37° |
| 2026-05-09 02:33 | 40.21829 | -82.90381 | 12998 ft | 384 kts | 63° |
| 2026-05-09 02:33 | 40.22436 | -82.86968 | 13023 ft | 390 kts | 88° |
| 2026-05-09 02:33 | 40.22273 | -82.83413 | 13016 ft | 392 kts | 97° |
| 2026-05-09 02:33 | 40.21862 | -82.79881 | 13003 ft | 393 kts | 100° |
| 2026-05-09 02:34 | 40.21376 | -82.76372 | 12994 ft | 393 kts | 101° |
| 2026-05-09 02:34 | 40.20877 | -82.72842 | 13208 ft | 396 kts | 101° |
| 2026-05-09 02:34 | 40.20384 | -82.69280 | 14127 ft | 398 kts | 100° |
| 2026-05-09 02:34 | 40.19907 | -82.65708 | 15079 ft | 400 kts | 100° |
| 2026-05-09 02:35 | 40.19439 | -82.62108 | 15888 ft | 406 kts | 100° |
| 2026-05-09 02:35 | 40.18970 | -82.58434 | 16638 ft | 413 kts | 100° |
| 2026-05-09 02:35 | 40.18499 | -82.54701 | 17436 ft | 419 kts | 100° |
| 2026-05-09 02:35 | 40.18025 | -82.50925 | 18231 ft | 424 kts | 100° |
| 2026-05-09 02:36 | 40.17542 | -82.47086 | 18900 ft | 430 kts | 100° |
| 2026-05-09 02:36 | 40.17052 | -82.43195 | 19527 ft | 437 kts | 101° |
| 2026-05-09 02:36 | 40.16553 | -82.39242 | 20160 ft | 444 kts | 100° |
| 2026-05-09 02:36 | 40.16045 | -82.35237 | 20798 ft | 450 kts | 101° |
| 2026-05-09 02:37 | 40.15528 | -82.31165 | 21427 ft | 457 kts | 101° |
| 2026-05-09 02:37 | 40.15003 | -82.27048 | 22026 ft | 463 kts | 101° |
| 2026-05-09 02:37 | 40.14469 | -82.22871 | 22645 ft | 469 kts | 101° |
| 2026-05-09 02:37 | 40.13925 | -82.18635 | 23230 ft | 475 kts | 101° |
| 2026-05-09 02:38 | 40.13373 | -82.14345 | 23769 ft | 481 kts | 101° |
| 2026-05-09 02:38 | 40.12814 | -82.10018 | 24298 ft | 485 kts | 101° |
| 2026-05-09 02:38 | 40.12250 | -82.05661 | 24860 ft | 488 kts | 101° |
| 2026-05-09 02:38 | 40.11687 | -82.01323 | 25384 ft | 492 kts | 101° |
| 2026-05-09 02:39 | 40.11111 | -81.96905 | 25892 ft | 496 kts | 101° |
| 2026-05-09 02:39 | 40.10528 | -81.92437 | 26392 ft | 500 kts | 101° |
| 2026-05-09 02:39 | 40.09939 | -81.87943 | 26892 ft | 504 kts | 101° |
| 2026-05-09 02:39 | 40.09336 | -81.83362 | 27386 ft | 508 kts | 101° |
| 2026-05-09 02:40 | 40.08742 | -81.78860 | 27848 ft | 511 kts | 101° |
| 2026-05-09 02:40 | 40.08134 | -81.74257 | 28291 ft | 516 kts | 101° |
| 2026-05-09 02:40 | 40.07567 | -81.69609 | 28732 ft | 521 kts | 97° |
| 2026-05-09 02:40 | 40.07244 | -81.64884 | 28973 ft | 526 kts | 94° |
| 2026-05-09 02:41 | 40.07037 | -81.60089 | 28940 ft | 529 kts | 93° |
| 2026-05-09 02:41 | 40.06716 | -81.50563 | 28920 ft | 522 kts | 93° |
| 2026-05-09 02:42 | 40.06335 | -81.41082 | 28938 ft | 524 kts | 94° |
| 2026-05-09 02:42 | 40.05886 | -81.31563 | 28934 ft | 526 kts | 94° |
| 2026-05-09 02:43 | 40.05416 | -81.22037 | 28929 ft | 526 kts | 94° |
| 2026-05-09 02:43 | 40.04944 | -81.12532 | 28933 ft | 524 kts | 94° |
| 2026-05-09 02:44 | 40.04468 | -81.03041 | 28926 ft | 524 kts | 94° |
| 2026-05-09 02:44 | 40.03985 | -80.93561 | 28928 ft | 523 kts | 94° |
| 2026-05-09 02:45 | 40.03496 | -80.84093 | 28928 ft | 523 kts | 94° |
| 2026-05-09 02:45 | 40.02164 | -80.74824 | 28935 ft | 520 kts | 108° |
| 2026-05-09 02:46 | 40.00024 | -80.65825 | 28933 ft | 519 kts | 110° |
| 2026-05-09 02:46 | 39.97884 | -80.56822 | 28924 ft | 521 kts | 109° |
| 2026-05-09 02:47 | 39.95839 | -80.47756 | 28918 ft | 522 kts | 108° |
| 2026-05-09 02:47 | 39.93824 | -80.38670 | 28931 ft | 522 kts | 108° |
| 2026-05-09 02:48 | 39.91797 | -80.29596 | 28948 ft | 522 kts | 108° |
| 2026-05-09 02:48 | 39.89755 | -80.20521 | 28945 ft | 522 kts | 109° |
| 2026-05-09 02:49 | 39.87718 | -80.11511 | 28940 ft | 522 kts | 108° |
| 2026-05-09 02:49 | 39.85668 | -80.02448 | 28941 ft | 522 kts | 107° |
| 2026-05-09 02:50 | 39.83858 | -79.93294 | 28955 ft | 523 kts | 105° |
| 2026-05-09 02:50 | 39.82137 | -79.84108 | 28952 ft | 523 kts | 105° |
| 2026-05-09 02:51 | 39.80365 | -79.74944 | 28950 ft | 523 kts | 106° |
| 2026-05-09 02:51 | 39.78556 | -79.65783 | 28954 ft | 523 kts | 106° |
| 2026-05-09 02:52 | 39.76727 | -79.56612 | 28955 ft | 525 kts | 107° |
| 2026-05-09 02:52 | 39.74711 | -79.47485 | 28964 ft | 525 kts | 108° |
| 2026-05-09 02:53 | 39.72638 | -79.38385 | 28962 ft | 526 kts | 108° |
| 2026-05-09 02:53 | 39.70584 | -79.29259 | 28964 ft | 527 kts | 108° |
| 2026-05-09 02:54 | 39.68538 | -79.20127 | 28954 ft | 528 kts | 108° |
| 2026-05-09 02:54 | 39.66478 | -79.10986 | 28963 ft | 527 kts | 108° |
| 2026-05-09 02:54 | 39.65454 | -79.06423 | 28826 ft | 526 kts | 108° |
| 2026-05-09 02:55 | 39.64445 | -79.01830 | 27983 ft | 531 kts | 107° |
| 2026-05-09 02:55 | 39.63454 | -78.97247 | 27425 ft | 524 kts | 107° |
| 2026-05-09 02:55 | 39.62477 | -78.92725 | 26852 ft | 518 kts | 107° |
| 2026-05-09 02:55 | 39.61508 | -78.88256 | 26310 ft | 512 kts | 107° |
| 2026-05-09 02:56 | 39.60542 | -78.83835 | 25777 ft | 506 kts | 107° |
| 2026-05-09 02:56 | 39.59587 | -78.79482 | 25255 ft | 500 kts | 107° |
| 2026-05-09 02:56 | 39.58636 | -78.75160 | 24714 ft | 494 kts | 107° |
| 2026-05-09 02:56 | 39.57696 | -78.70909 | 24155 ft | 488 kts | 108° |
| 2026-05-09 02:57 | 39.56764 | -78.66695 | 23640 ft | 483 kts | 108° |
| 2026-05-09 02:57 | 39.55842 | -78.62533 | 23052 ft | 478 kts | 108° |
| 2026-05-09 02:57 | 39.54940 | -78.58428 | 22516 ft | 470 kts | 107° |
| 2026-05-09 02:57 | 39.54075 | -78.54372 | 22007 ft | 463 kts | 107° |
| 2026-05-09 02:58 | 39.53241 | -78.50422 | 21521 ft | 459 kts | 107° |
| 2026-05-09 02:58 | 39.52401 | -78.46460 | 21035 ft | 455 kts | 107° |
| 2026-05-09 02:58 | 39.51560 | -78.42518 | 20551 ft | 453 kts | 107° |
| 2026-05-09 02:58 | 39.50714 | -78.38595 | 20073 ft | 451 kts | 108° |
| 2026-05-09 02:59 | 39.49846 | -78.34704 | 19608 ft | 449 kts | 108° |
| 2026-05-09 02:59 | 39.48974 | -78.30849 | 19128 ft | 446 kts | 108° |
| 2026-05-09 02:59 | 39.48098 | -78.27001 | 18676 ft | 444 kts | 108° |
| 2026-05-09 02:59 | 39.47235 | -78.23208 | 18557 ft | 432 kts | 108° |
| 2026-05-09 03:00 | 39.46398 | -78.19509 | 18563 ft | 428 kts | 108° |
| 2026-05-09 03:00 | 39.45560 | -78.15816 | 18155 ft | 427 kts | 108° |
| 2026-05-09 03:00 | 39.44965 | -78.12090 | 17692 ft | 421 kts | 94° |
| 2026-05-09 03:00 | 39.44959 | -78.08292 | 16964 ft | 421 kts | 88° |
| 2026-05-09 03:01 | 39.45046 | -78.04512 | 16306 ft | 420 kts | 88° |
| 2026-05-09 03:01 | 39.45094 | -78.00801 | 15882 ft | 406 kts | 89° |
| 2026-05-09 03:01 | 39.45105 | -77.97204 | 15215 ft | 398 kts | 89° |
| 2026-05-09 03:01 | 39.45098 | -77.93657 | 14793 ft | 387 kts | 89° |
| 2026-05-09 03:02 | 39.45091 | -77.90212 | 14403 ft | 377 kts | 89° |
| 2026-05-09 03:02 | 39.45085 | -77.86850 | 14101 ft | 371 kts | 89° |
| 2026-05-09 03:02 | 39.45080 | -77.83500 | 13839 ft | 373 kts | 89° |
| 2026-05-09 03:02 | 39.45075 | -77.80128 | 13542 ft | 376 kts | 89° |
| 2026-05-09 03:03 | 39.45068 | -77.76742 | 13220 ft | 376 kts | 89° |
| 2026-05-09 03:03 | 39.45060 | -77.73369 | 12935 ft | 372 kts | 90° |
| 2026-05-09 03:03 | 39.45038 | -77.70066 | 12865 ft | 365 kts | 90° |
| 2026-05-09 03:03 | 39.45005 | -77.66764 | 12778 ft | 369 kts | 90° |
| 2026-05-09 03:04 | 39.44969 | -77.63432 | 12700 ft | 371 kts | 90° |
| 2026-05-09 03:04 | 39.44932 | -77.60090 | 12573 ft | 372 kts | 91° |
| 2026-05-09 03:04 | 39.44895 | -77.56755 | 12500 ft | 370 kts | 90° |
| 2026-05-09 03:04 | 39.44857 | -77.53426 | 12406 ft | 370 kts | 90° |
| 2026-05-09 03:05 | 39.44819 | -77.50092 | 12308 ft | 370 kts | 90° |
| 2026-05-09 03:05 | 39.44781 | -77.46761 | 12196 ft | 369 kts | 90° |
| 2026-05-09 03:05 | 39.44743 | -77.43450 | 12103 ft | 368 kts | 90° |
| 2026-05-09 03:05 | 39.44704 | -77.40141 | 12012 ft | 367 kts | 91° |
| 2026-05-09 03:06 | 39.44664 | -77.36839 | 11912 ft | 367 kts | 91° |
| 2026-05-09 03:06 | 39.44586 | -77.33589 | 11811 ft | 366 kts | 92° |
| 2026-05-09 03:06 | 39.44456 | -77.30306 | 11712 ft | 365 kts | 93° |
| 2026-05-09 03:06 | 39.44312 | -77.26995 | 11619 ft | 364 kts | 93° |
| 2026-05-09 03:07 | 39.44170 | -77.23735 | 11521 ft | 363 kts | 93° |
| 2026-05-09 03:07 | 39.44032 | -77.20485 | 11424 ft | 362 kts | 93° |
| 2026-05-09 03:07 | 39.43899 | -77.17301 | 11335 ft | 361 kts | 93° |
| 2026-05-09 03:07 | 39.43766 | -77.14041 | 11242 ft | 361 kts | 93° |
| 2026-05-09 03:08 | 39.43634 | -77.10825 | 11125 ft | 353 kts | 93° |
| 2026-05-09 03:08 | 39.43507 | -77.07730 | 11008 ft | 335 kts | 93° |
| 2026-05-09 03:08 | 39.43385 | -77.04791 | 10795 ft | 322 kts | 93° |
| 2026-05-09 03:08 | 39.43266 | -77.01938 | 10560 ft | 315 kts | 93° |
| 2026-05-09 03:09 | 39.43148 | -76.99116 | 10332 ft | 314 kts | 93° |
| 2026-05-09 03:09 | 39.43043 | -76.96655 | 10123 ft | 311 kts | 93° |
| 2026-05-09 03:09 | 39.42927 | -76.93910 | 9872 ft | 302 kts | 93° |
| 2026-05-09 03:09 | 39.42812 | -76.91224 | 9617 ft | 297 kts | 94° |
| 2026-05-09 03:10 | 39.42698 | -76.88563 | 9384 ft | 296 kts | 94° |
| 2026-05-09 03:10 | 39.42582 | -76.85905 | 9151 ft | 297 kts | 93° |
| 2026-05-09 03:10 | 39.42465 | -76.83233 | 8918 ft | 298 kts | 94° |
| 2026-05-09 03:10 | 39.42349 | -76.80554 | 8683 ft | 298 kts | 94° |
| 2026-05-09 03:11 | 39.42232 | -76.77881 | 8436 ft | 298 kts | 94° |
| 2026-05-09 03:11 | 39.42114 | -76.75207 | 8203 ft | 297 kts | 94° |
| 2026-05-09 03:11 | 39.41869 | -76.72579 | 7954 ft | 293 kts | 107° |
| 2026-05-09 03:11 | 39.41253 | -76.70105 | 7744 ft | 285 kts | 112° |
| 2026-05-09 03:12 | 39.40563 | -76.67729 | 7515 ft | 281 kts | 114° |
| 2026-05-09 03:12 | 39.39874 | -76.65374 | 7314 ft | 279 kts | 113° |
| 2026-05-09 03:12 | 39.39204 | -76.63030 | 7084 ft | 278 kts | 113° |
| 2026-05-09 03:12 | 39.38547 | -76.60677 | 6870 ft | 277 kts | 112° |
| 2026-05-09 03:13 | 39.37266 | -76.56007 | 6467 ft | 274 kts | 113° |
| 2026-05-09 03:13 | 39.36676 | -76.53847 | 6262 ft | 273 kts | 113° |
| 2026-05-09 03:13 | 39.36229 | -76.52335 | 6098 ft | 270 kts | 121° |
| 2026-05-09 03:14 | 39.34572 | -76.50082 | 5838 ft | 256 kts | 150° |
| 2026-05-09 03:14 | 39.33576 | -76.49271 | 5719 ft | 256 kts | 153° |
| 2026-05-09 03:14 | 39.32049 | -76.48100 | 5530 ft | 252 kts | 154° |
| 2026-05-09 03:14 | 39.30570 | -76.46962 | 5333 ft | 243 kts | 154° |
| 2026-05-09 03:15 | 39.29151 | -76.45858 | 5147 ft | 233 kts | 154° |
| 2026-05-09 03:15 | 39.27699 | -76.45171 | 4931 ft | 216 kts | 183° |
| 2026-05-09 03:15 | 39.26257 | -76.45357 | 4780 ft | 206 kts | 197° |
| 2026-05-09 03:15 | 39.24868 | -76.45813 | 4577 ft | 206 kts | 199° |
| 2026-05-09 03:16 | 39.23472 | -76.46296 | 4362 ft | 208 kts | 200° |
| 2026-05-09 03:16 | 39.22088 | -76.46764 | 4147 ft | 203 kts | 200° |
| 2026-05-09 03:16 | 39.20766 | -76.47267 | 3995 ft | 193 kts | 205° |
| 2026-05-09 03:16 | 39.19523 | -76.47904 | 3892 ft | 193 kts | 207° |
| 2026-05-09 03:17 | 39.18277 | -76.48557 | 3773 ft | 195 kts | 207° |
| 2026-05-09 03:17 | 39.17009 | -76.49215 | 3655 ft | 197 kts | 206° |
| 2026-05-09 03:17 | 39.15745 | -76.49864 | 3540 ft | 194 kts | 206° |
| 2026-05-09 03:17 | 39.14537 | -76.50478 | 3446 ft | 179 kts | 206° |
| 2026-05-09 03:18 | 39.13426 | -76.51041 | 3329 ft | 163 kts | 206° |
| 2026-05-09 03:18 | 39.12421 | -76.51547 | 3221 ft | 146 kts | 207° |
| 2026-05-09 03:18 | 39.11519 | -76.52052 | 3073 ft | 138 kts | 210° |
| 2026-05-09 03:18 | 39.10723 | -76.52695 | 2923 ft | 136 kts | 223° |
| 2026-05-09 03:19 | 39.10080 | -76.53585 | 2761 ft | 137 kts | 232° |
| 2026-05-09 03:19 | 39.09603 | -76.54622 | 2588 ft | 137 kts | 242° |
| 2026-05-09 03:19 | 39.09308 | -76.55813 | 2409 ft | 139 kts | 254° |
| 2026-05-09 03:19 | 39.09240 | -76.57068 | 2155 ft | 143 kts | 266° |
| 2026-05-09 03:20 | 39.09449 | -76.58338 | 1984 ft | 150 kts | 287° |
| 2026-05-09 03:20 | 39.10012 | -76.59525 | 1796 ft | 159 kts | 293° |
| 2026-05-09 03:20 | 39.10638 | -76.60626 | 1700 ft | 146 kts | 300° |
| 2026-05-09 03:20 | 39.11365 | -76.61539 | 1421 ft | 146 kts | 311° |
| 2026-05-09 03:21 | 39.12163 | -76.62314 | 1193 ft | 142 kts | 318° |
| 2026-05-09 03:21 | 39.12973 | -76.63021 | 959 ft | 143 kts | 319° |
| 2026-05-09 03:21 | 39.13753 | -76.63759 | 848 ft | 135 kts | 320° |
| 2026-05-09 03:21 | 39.14490 | -76.64473 | 667 ft | 136 kts | 321° |
| 2026-05-09 03:22 | 39.15284 | -76.65196 | 510 ft | 139 kts | 325° |
| 2026-05-09 03:22 | 39.16063 | -76.65909 | 317 ft | 135 kts | 323° |
| 2026-05-09 03:22 | 39.16822 | -76.66605 | 156 ft | 129 kts | 323° |
| 2026-05-09 03:22 | 39.17375 | -76.67122 | 161 ft | 66 kts | 324° |
| 2026-05-09 03:23 | 39.17570 | -76.67260 | 159 ft | 17 kts | 12° |
| 2026-05-09 03:23 | 39.17611 | -76.67220 | 158 ft | 4 kts | 49° |
| 2026-05-09 03:23 | 39.17613 | -76.67188 | 158 ft | 4 kts | 107° |
| 2026-05-09 03:23 | 39.17599 | -76.67161 | 158 ft | 4 kts | 129° |
| 2026-05-09 03:24 | 39.17569 | -76.67128 | 160 ft | 7 kts | 142° |
| 2026-05-09 03:24 | 39.17529 | -76.67087 | 161 ft | 7 kts | 142° |
| 2026-05-09 03:24 | 39.17493 | -76.67028 | 160 ft | 11 kts | 115° |
| 2026-05-09 03:24 | 39.17468 | -76.66932 | 159 ft | 11 kts | 101° |
| 2026-05-09 03:25 | 39.17480 | -76.66857 | 158 ft | 8 kts | 49° |
| 2026-05-09 03:25 | 39.17529 | -76.66874 | 158 ft | 10 kts | 296° |
| 2026-05-09 03:25 | 39.17545 | -76.66966 | 159 ft | 11 kts | 287° |
| 2026-05-09 03:25 | 39.17599 | -76.67052 | 159 ft | 14 kts | 316° |
| 2026-05-09 03:26 | 39.17692 | -76.67135 | 156 ft | 18 kts | 325° |
| 2026-05-09 03:26 | 39.17760 | -76.67195 | 156 ft | 7 kts | 325° |
| 2026-05-09 03:26 | 39.17778 | -76.67208 | 155 ft | 0 kts | 355° |
| 2026-05-09 03:26 | 39.17780 | -76.67203 | 155 ft | 1 kts | 54° |
| 2026-05-09 03:27 | 39.17785 | -76.67181 | 155 ft | 3 kts | 70° |
| 2026-05-09 03:27 | 39.17790 | -76.67154 | 156 ft | 3 kts | 78° |
| 2026-05-09 03:27 | 39.17789 | -76.67128 | 156 ft | 3 kts | 97° |
| 2026-05-09 03:27 | 39.17788 | -76.67116 | 156 ft | 0 kts | 98° |